Time;durP1;ratioP1;P1;durP2;ratioP2;P2;SDS_P1;SDS_P2;PMS_P1;PMS_P2;Temp;Humidity;BMP_temperature;BMP_pressure;BME280_temperature;BME280_humidity;BME280_pressure;Samples;Min_cycle;Max_cycle;Signal;HPM_P1;HPM_P2
2022/11/09 00:01:40;;;;;;;8.98;6.30;;;12.60;99.90;;;;;;4931273;29;20035;-75
2022/11/09 00:04:07;;;;;;;22.73;6.93;;;12.60;99.90;;;;;;4930957;29;20091;-75
2022/11/09 00:06:34;;;;;;;9.45;6.10;;;12.50;99.90;;;;;;4928118;29;20047;-73
2022/11/09 00:09:02;;;;;;;15.65;6.22;;;12.60;99.90;;;;;;4928961;29;20044;-76
2022/11/09 00:11:27;;;;;;;13.95;6.95;;;12.60;99.90;;;;;;4929397;29;20085;-73
2022/11/09 00:13:53;;;;;;;12.73;6.88;;;12.60;99.90;;;;;;4929060;29;20496;-73
2022/11/09 00:16:21;;;;;;;16.75;6.65;;;12.60;99.90;;;;;;4930723;29;20055;-74
2022/11/09 00:18:47;;;;;;;10.57;6.80;;;12.70;99.90;;;;;;4929555;29;20079;-74
2022/11/09 00:21:18;;;;;;;12.55;6.60;;;12.50;99.90;;;;;;4929960;29;20051;-74
2022/11/09 00:23:44;;;;;;;13.48;6.15;;;12.80;99.90;;;;;;4929007;29;20043;-74
2022/11/09 00:26:13;;;;;;;16.10;6.63;;;12.40;99.90;;;;;;4929607;29;20043;-73
2022/11/09 00:28:38;;;;;;;;;;;13.10;99.90;;;;;;4931139;29;20421;-73
2022/11/09 00:31:06;;;;;;;20.30;7.93;;;12.50;99.90;;;;;;4930972;29;19923;-74
2022/11/09 00:33:34;;;;;;;11.82;6.20;;;12.60;99.90;;;;;;4929467;29;20059;-74
2022/11/09 00:36:06;;;;;;;13.88;6.30;;;12.50;99.90;;;;;;4930085;29;20075;-74
2022/11/09 00:38:32;;;;;;;12.52;7.18;;;12.40;99.90;;;;;;4929134;29;20051;-73
2022/11/09 00:41:02;;;;;;;12.23;6.47;;;12.40;99.90;;;;;;4929488;29;20547;-73
2022/11/09 00:43:28;;;;;;;16.27;7.47;;;12.40;99.90;;;;;;4928874;29;20079;-73
2022/11/09 00:45:55;;;;;;;13.63;6.80;;;12.40;99.90;;;;;;4926145;29;20090;-74
2022/11/09 00:48:21;;;;;;;11.52;6.78;;;12.50;99.90;;;;;;4928714;29;20106;-73
2022/11/09 00:50:51;;;;;;;31.00;8.30;;;12.40;99.90;;;;;;4929041;29;20047;-73
2022/11/09 00:53:18;;;;;;;13.18;7.28;;;12.30;99.90;;;;;;4928897;29;20161;-73
2022/11/09 00:55:53;;;;;;;14.55;6.95;;;12.80;99.90;;;;;;4939416;28;20374;-73
2022/11/09 00:58:18;;;;;;;10.88;6.78;;;12.40;99.90;;;;;;4916097;29;20043;-74
2022/11/09 01:00:44;;;;;;;14.57;7.15;;;12.40;99.90;;;;;;4925586;29;20048;-74
2022/11/09 01:03:09;;;;;;;9.48;6.57;;;12.30;99.90;;;;;;4927924;29;20051;-74
2022/11/09 01:05:38;;;;;;;19.08;9.05;;;12.40;99.90;;;;;;4929119;29;20465;-73
2022/11/09 01:08:04;;;;;;;16.10;7.43;;;12.50;99.90;;;;;;4929914;29;20047;-74
2022/11/09 01:10:30;;;;;;;19.90;6.70;;;12.40;99.90;;;;;;4932860;29;20127;-73
2022/11/09 01:12:56;;;;;;;10.77;6.43;;;12.60;99.90;;;;;;4933235;29;20916;-74
2022/11/09 01:15:21;;;;;;;11.23;6.22;;;12.40;99.90;;;;;;4933722;29;20941;-73
2022/11/09 01:17:47;;;;;;;26.73;8.20;;;12.70;99.90;;;;;;4931819;29;20043;-73
2022/11/09 01:20:15;;;;;;;13.23;6.80;;;12.50;99.90;;;;;;4947576;29;20114;-74
2022/11/09 01:22:40;;;;;;;19.43;6.10;;;12.40;99.90;;;;;;4932927;29;20055;-74
2022/11/09 01:25:07;;;;;;;11.98;6.38;;;12.40;99.90;;;;;;4932686;29;20062;-74
2022/11/09 01:27:32;;;;;;;18.48;6.85;;;12.40;99.90;;;;;;4932811;29;20055;-73
2022/11/09 01:29:58;;;;;;;10.20;6.72;;;12.60;99.90;;;;;;4931921;29;20656;-74
2022/11/09 01:32:24;;;;;;;11.32;6.75;;;12.40;99.90;;;;;;4932785;29;20576;-73
2022/11/09 01:34:49;;;;;;;20.95;7.10;;;12.40;99.90;;;;;;4932320;29;20047;-73
2022/11/09 01:37:15;;;;;;;12.07;5.82;;;12.40;99.90;;;;;;4932981;29;20051;-73
2022/11/09 01:39:41;;;;;;;15.93;7.22;;;12.40;99.90;;;;;;4934156;29;20580;-74
2022/11/09 01:42:06;;;;;;;20.25;6.95;;;12.40;99.90;;;;;;4932175;29;20047;-74
2022/11/09 01:44:36;;;;;;;13.38;6.40;;;12.30;99.90;;;;;;4932274;29;20052;-74
2022/11/09 01:47:23;;;;;;;22.00;6.80;;;12.30;99.90;;;;;;4932418;29;20052;-74
2022/11/09 01:49:56;;;;;;;17.85;6.55;;;12.30;99.90;;;;;;4931307;29;20130;-74
2022/11/09 01:52:33;;;;;;;9.45;6.07;;;12.30;99.90;;;;;;4931945;29;20582;-74
2022/11/09 01:55:04;;;;;;;20.60;7.10;;;12.30;99.90;;;;;;4933126;29;20139;-74
2022/11/09 01:57:33;;;;;;;15.35;6.70;;;12.30;99.90;;;;;;4945477;29;20048;-74
2022/11/09 02:00:04;;;;;;;14.15;6.68;;;12.20;99.90;;;;;;4932976;29;20532;-73
2022/11/09 02:02:31;;;;;;;17.80;7.43;;;12.30;99.90;;;;;;4933830;29;20436;-74
2022/11/09 02:05:04;;;;;;;17.27;7.13;;;12.40;99.90;;;;;;4932328;29;20497;-74
2022/11/09 02:07:30;;;;;;;14.60;7.22;;;12.20;99.90;;;;;;4932071;29;20134;-74
2022/11/09 02:10:14;;;;;;;13.48;6.70;;;12.20;99.90;;;;;;4931523;29;20142;-74
2022/11/09 02:12:40;;;;;;;9.40;6.78;;;12.10;99.90;;;;;;4931859;29;20057;-74
2022/11/09 02:15:08;;;;;;;12.50;6.57;;;12.10;99.90;;;;;;4931838;29;20394;-74
2022/11/09 02:17:33;;;;;;;16.88;7.10;;;12.20;99.90;;;;;;4931721;29;20044;-74
2022/11/09 02:19:59;;;;;;;15.30;6.65;;;12.40;99.90;;;;;;4931678;29;20058;-74
2022/11/09 02:22:25;;;;;;;11.38;6.45;;;12.00;99.90;;;;;;4931264;29;20282;-74
2022/11/09 02:24:51;;;;;;;11.18;6.70;;;12.10;99.90;;;;;;4932457;29;20071;-74
2022/11/09 02:27:18;;;;;;;21.40;7.30;;;12.50;99.90;;;;;;4945895;28;20058;-74
2022/11/09 02:29:47;;;;;;;11.52;7.90;;;12.40;99.90;;;;;;4931631;29;20409;-74
2022/11/09 02:32:19;;;;;;;16.90;6.35;;;12.00;99.90;;;;;;4931046;29;20047;-74
2022/11/09 02:34:44;;;;;;;9.30;6.25;;;12.10;99.90;;;;;;4938521;29;20067;-74
2022/11/09 02:37:10;;;;;;;12.60;6.10;;;12.00;99.90;;;;;;4932356;29;20048;-74
2022/11/09 02:39:37;;;;;;;17.33;6.90;;;12.10;99.90;;;;;;4930605;29;20055;-74
2022/11/09 02:42:10;;;;;;;15.63;7.60;;;12.00;99.90;;;;;;4931630;29;20043;-74
2022/11/09 02:44:44;;;;;;;12.73;5.90;;;12.20;99.90;;;;;;4929662;29;20509;-74
2022/11/09 02:47:09;;;;;;;15.02;5.70;;;12.00;99.90;;;;;;4930085;29;20051;-74
2022/11/09 02:49:35;;;;;;;16.10;6.55;;;12.00;99.90;;;;;;4931224;29;20044;-74
2022/11/09 02:52:01;;;;;;;15.13;6.40;;;12.00;99.90;;;;;;4931601;29;20059;-74
2022/11/09 02:54:26;;;;;;;15.73;6.22;;;12.20;99.90;;;;;;4931890;29;20052;-74
2022/11/09 02:56:52;;;;;;;16.73;6.35;;;12.00;99.90;;;;;;4929936;29;20835;-74
2022/11/09 02:59:17;;;;;;;19.05;6.38;;;12.20;99.90;;;;;;4931663;29;20135;-74
2022/11/09 03:01:43;;;;;;;20.27;6.05;;;11.90;99.90;;;;;;4928284;29;20436;-74
2022/11/09 03:04:09;;;;;;;16.30;5.55;;;11.90;99.90;;;;;;4930832;29;20056;-74
2022/11/09 03:06:35;;;;;;;16.33;5.57;;;11.90;99.90;;;;;;4931177;29;20048;-74
2022/11/09 03:09:04;;;;;;;14.45;6.20;;;11.90;99.90;;;;;;4930160;29;20102;-74
2022/11/09 03:11:30;;;;;;;22.35;7.90;;;11.90;99.90;;;;;;4946274;28;20079;-74
2022/11/09 03:13:56;;;;;;;12.05;5.32;;;11.80;99.90;;;;;;4931202;29;20098;-74
2022/11/09 03:16:22;;;;;;;18.50;5.22;;;12.00;99.90;;;;;;4932033;29;20044;-74
2022/11/09 03:18:48;;;;;;;11.43;6.00;;;12.10;99.90;;;;;;4929919;29;20412;-74
2022/11/09 03:21:14;;;;;;;12.43;5.68;;;12.10;99.90;;;;;;4929344;29;20480;-74
2022/11/09 03:23:39;;;;;;;15.05;6.00;;;11.90;99.90;;;;;;4931708;29;20043;-74
2022/11/09 03:26:05;;;;;;;30.25;6.75;;;12.00;99.90;;;;;;4930541;29;20055;-73
2022/11/09 03:28:31;;;;;;;17.58;5.70;;;11.90;99.90;;;;;;4929058;29;20039;-73
2022/11/09 03:30:56;;;;;;;15.43;5.70;;;11.90;99.90;;;;;;4930401;29;20052;-73
2022/11/09 03:33:22;;;;;;;19.88;7.13;;;11.80;99.90;;;;;;4929732;29;20061;-73
2022/11/09 03:35:48;;;;;;;18.35;5.63;;;11.90;99.90;;;;;;4929173;29;20481;-72
2022/11/09 03:38:14;;;;;;;16.85;5.90;;;11.80;99.90;;;;;;4930314;29;20080;-73
2022/11/09 03:40:39;;;;;;;14.85;5.75;;;11.80;99.90;;;;;;4930722;29;20051;-73
2022/11/09 03:43:05;;;;;;;15.60;5.45;;;11.90;99.90;;;;;;4931476;29;20086;-73
2022/11/09 03:45:31;;;;;;;18.63;5.53;;;11.90;99.90;;;;;;4928296;29;20043;-73
2022/11/09 03:47:58;;;;;;;13.10;5.82;;;11.80;99.90;;;;;;4939467;29;20170;-74
2022/11/09 03:50:26;;;;;;;16.13;6.05;;;11.80;99.90;;;;;;4951204;28;20058;-74
2022/11/09 03:52:52;;;;;;;19.43;6.40;;;11.80;99.90;;;;;;4923948;29;20563;-74
2022/11/09 03:55:18;;;;;;;15.82;5.28;;;11.70;99.90;;;;;;4930635;29;20106;-74
2022/11/09 03:57:45;;;;;;;12.95;5.95;;;11.80;99.90;;;;;;4929980;29;20448;-74
2022/11/09 04:00:13;;;;;;;18.30;6.20;;;11.70;99.90;;;;;;4929700;29;20048;-74
2022/11/09 04:02:39;;;;;;;14.52;6.05;;;11.70;99.90;;;;;;4930533;29;20131;-74
2022/11/09 04:05:06;;;;;;;18.85;5.53;;;11.70;99.90;;;;;;4930580;29;20051;-74
2022/11/09 04:07:32;;;;;;;17.05;6.07;;;11.70;99.90;;;;;;4930109;29;20154;-73
2022/11/09 04:09:57;;;;;;;13.88;5.95;;;11.60;99.90;;;;;;4917888;29;20134;-73
2022/11/09 04:12:23;;;;;;;13.88;5.43;;;11.70;99.90;;;;;;4927148;29;20040;-73
2022/11/09 04:14:49;;;;;;;29.45;7.07;;;11.60;99.90;;;;;;4925110;29;20512;-73
2022/11/09 04:17:14;;;;;;;22.98;5.97;;;11.60;99.90;;;;;;4944047;29;20078;-73
2022/11/09 04:19:41;;;;;;;10.82;5.65;;;11.60;99.90;;;;;;4930546;29;20066;-74
2022/11/09 04:22:07;;;;;;;22.15;6.30;;;11.60;99.90;;;;;;4929476;29;20063;-74
2022/11/09 04:24:32;;;;;;;17.50;5.43;;;11.70;99.90;;;;;;4930542;29;20047;-74
2022/11/09 04:26:58;;;;;;;15.98;6.18;;;11.80;99.90;;;;;;4928820;29;20051;-74
2022/11/09 04:29:24;;;;;;;11.23;5.05;;;11.70;99.90;;;;;;4928780;29;20106;-74
2022/11/09 04:31:49;;;;;;;28.55;6.85;;;11.80;99.90;;;;;;4933276;29;20075;-74
2022/11/09 04:34:16;;;;;;;10.02;5.90;;;11.80;99.90;;;;;;4932921;29;20055;-74
2022/11/09 04:36:42;;;;;;;10.50;6.97;;;11.80;99.90;;;;;;4945064;29;20055;-74
2022/11/09 04:39:07;;;;;;;13.48;5.75;;;11.70;99.90;;;;;;4928468;29;20545;-74
2022/11/09 04:41:33;;;;;;;14.10;6.90;;;11.80;99.90;;;;;;4930735;29;20043;-74
2022/11/09 04:43:58;;;;;;;10.55;5.47;;;11.70;99.90;;;;;;4928257;29;20051;-73
2022/11/09 04:46:25;;;;;;;14.10;6.18;;;11.70;99.90;;;;;;4929745;29;20043;-74
2022/11/09 04:48:51;;;;;;;14.48;6.40;;;11.80;99.90;;;;;;4920855;29;20095;-73
2022/11/09 04:51:16;;;;;;;14.73;6.78;;;11.70;99.90;;;;;;4929323;29;20086;-74
2022/11/09 04:53:42;;;;;;;11.57;6.07;;;11.70;99.90;;;;;;4928749;29;20056;-74
2022/11/09 04:56:08;;;;;;;26.02;6.90;;;11.80;99.90;;;;;;4946881;28;20044;-74
2022/11/09 04:58:34;;;;;;;11.07;5.43;;;11.80;99.90;;;;;;4928960;29;20517;-73
2022/11/09 05:01:09;;;;;;;12.70;6.35;;;11.80;99.90;;;;;;4945585;28;20052;-74
2022/11/09 05:03:35;;;;;;;19.10;6.32;;;11.80;99.90;;;;;;4943599;28;20404;-74
2022/11/09 05:06:30;;;;;;;22.15;5.82;;;11.80;99.90;;;;;;4928844;29;20106;-74
2022/11/09 05:08:46;;;;;;;14.27;6.68;;;11.70;99.90;;;;;;4929009;29;20492;-73
2022/11/09 05:11:12;;;;;;;12.20;5.70;;;11.70;99.90;;;;;;4930431;29;20047;-74
2022/11/09 05:13:38;;;;;;;13.40;6.43;;;11.70;99.90;;;;;;4929471;29;20075;-74
2022/11/09 05:16:04;;;;;;;12.25;5.72;;;12.10;99.90;;;;;;4929108;29;20095;-74
2022/11/09 05:18:29;;;;;;;20.15;6.97;;;11.80;99.90;;;;;;4928530;29;20597;-74
2022/11/09 05:20:58;;;;;;;15.13;5.88;;;11.80;99.90;;;;;;4928572;29;20498;-74
2022/11/09 05:26:08;;;;;;;16.17;5.85;;;11.90;99.90;;;;;;4929136;29;20607;-74
2022/11/09 05:28:33;;;;;;;17.65;5.82;;;11.80;99.90;;;;;;4929188;29;20079;-74
2022/11/09 05:30:59;;;;;;;25.05;6.53;;;11.90;99.90;;;;;;4929874;29;20090;-74
2022/11/09 05:33:25;;;;;;;17.75;6.07;;;11.80;99.90;;;;;;4944229;28;20126;-74
2022/11/09 05:35:53;;;;;;;15.02;5.25;;;11.90;99.90;;;;;;4940403;29;20043;-74
2022/11/09 05:38:19;;;;;;;15.30;6.13;;;12.20;99.90;;;;;;4928909;29;20149;-74
2022/11/09 05:40:47;;;;;;;11.82;5.47;;;11.90;99.90;;;;;;4928536;29;20617;-74
2022/11/09 05:43:13;;;;;;;21.17;6.95;;;11.90;99.90;;;;;;4927662;29;20056;-74
2022/11/09 05:45:38;;;;;;;14.93;5.53;;;12.00;99.90;;;;;;4929869;29;20051;-74
2022/11/09 05:48:04;;;;;;;12.55;6.13;;;11.90;99.90;;;;;;4929736;29;20044;-73
2022/11/09 05:50:30;;;;;;;9.50;5.45;;;12.00;99.90;;;;;;4927672;29;20126;-73
2022/11/09 05:52:58;;;;;;;8.95;5.53;;;11.90;99.90;;;;;;4928141;29;20528;-74
2022/11/09 05:55:23;;;;;;;14.25;6.43;;;11.90;99.90;;;;;;4930071;29;20047;-74
2022/11/09 05:57:49;;;;;;;12.57;6.80;;;11.90;99.90;;;;;;4931553;29;20059;-74
2022/11/09 06:00:16;;;;;;;11.13;5.82;;;11.90;99.90;;;;;;4932751;29;20070;-74
2022/11/09 06:02:45;;;;;;;17.40;5.38;;;11.90;99.90;;;;;;4931318;29;20056;-73
2022/11/09 06:05:10;;;;;;;14.60;5.57;;;12.00;99.90;;;;;;4921061;29;20063;-73
2022/11/09 06:07:36;;;;;;;16.38;6.15;;;11.80;99.90;;;;;;4932335;29;20158;-74
2022/11/09 06:10:03;;;;;;;16.52;6.15;;;12.00;99.90;;;;;;4932132;29;20047;-74
2022/11/09 06:12:29;;;;;;;15.57;5.93;;;11.80;99.90;;;;;;4931740;29;20621;-74
2022/11/09 06:14:54;;;;;;;8.57;6.03;;;12.20;99.90;;;;;;4928358;29;20047;-74
2022/11/09 06:17:20;;;;;;;16.40;6.10;;;12.10;99.90;;;;;;4946805;29;20051;-74
2022/11/09 06:19:46;;;;;;;10.95;5.07;;;11.70;99.90;;;;;;4931778;29;20051;-74
2022/11/09 06:22:11;;;;;;;15.32;6.25;;;11.70;99.90;;;;;;4931892;29;20054;-74
2022/11/09 06:24:37;;;;;;;12.73;5.57;;;11.80;99.90;;;;;;4932038;29;20151;-74
2022/11/09 06:27:03;;;;;;;14.98;5.78;;;11.70;99.90;;;;;;4931297;29;20059;-74
2022/11/09 06:29:29;;;;;;;18.23;5.10;;;11.60;99.90;;;;;;4930880;29;20052;-74
2022/11/09 06:31:55;;;;;;;15.73;5.75;;;11.60;99.90;;;;;;4931417;29;20052;-73
2022/11/09 06:34:20;;;;;;;13.93;6.00;;;11.50;99.90;;;;;;4928432;29;20059;-73
2022/11/09 06:36:46;;;;;;;21.88;6.13;;;11.50;99.90;;;;;;4931689;29;20401;-73
2022/11/09 06:39:12;;;;;;;12.15;5.35;;;11.50;99.90;;;;;;4931760;29;20079;-74
2022/11/09 06:41:37;;;;;;;10.00;4.93;;;11.50;99.90;;;;;;4931091;29;20051;-73
2022/11/09 06:44:04;;;;;;;14.82;6.15;;;11.60;99.90;;;;;;4931989;29;21304;-73
2022/11/09 06:46:31;;;;;;;14.05;5.32;;;11.50;99.90;;;;;;4930142;29;20067;-73
2022/11/09 06:48:56;;;;;;;13.27;5.25;;;12.00;99.90;;;;;;4930217;29;20047;-74
2022/11/09 06:51:22;;;;;;;13.15;5.78;;;11.50;99.90;;;;;;4931795;29;20512;-74
2022/11/09 06:53:48;;;;;;;7.72;4.72;;;11.50;99.90;;;;;;4931647;29;20062;-74
2022/11/09 06:56:14;;;;;;;17.02;5.68;;;11.40;99.90;;;;;;4930424;29;20056;-74
2022/11/09 06:58:39;;;;;;;16.67;5.13;;;11.40;99.90;;;;;;4929962;29;20047;-73
2022/11/09 07:01:11;;;;;;;20.80;5.32;;;11.40;99.90;;;;;;4930226;29;20049;-73
2022/11/09 07:03:38;;;;;;;14.52;5.28;;;11.40;99.90;;;;;;4931871;29;20054;-74
2022/11/09 07:06:10;;;;;;;20.02;5.95;;;11.40;99.90;;;;;;4929259;29;20487;-74
2022/11/09 07:08:35;;;;;;;16.25;5.53;;;11.40;99.90;;;;;;4927425;29;20056;-74
2022/11/09 07:11:06;;;;;;;20.33;5.30;;;11.30;99.90;;;;;;4926736;29;20454;-73
2022/11/09 07:13:32;;;;;;;17.73;5.25;;;11.40;99.90;;;;;;4930085;29;20051;-74
2022/11/09 07:15:58;;;;;;;25.42;6.78;;;11.40;99.90;;;;;;4931429;29;20142;-73
2022/11/09 07:18:24;;;;;;;25.98;6.82;;;11.70;99.90;;;;;;4930060;29;20126;-73
2022/11/09 07:20:50;;;;;;;15.63;4.93;;;11.30;99.90;;;;;;4945479;29;20083;-73
2022/11/09 07:23:15;;;;;;;19.45;6.20;;;11.30;99.90;;;;;;4930725;29;21177;-73
2022/11/09 07:25:41;;;;;;;20.08;6.93;;;11.30;99.90;;;;;;4930524;29;20044;-74
2022/11/09 07:28:08;;;;;;;17.25;5.72;;;11.30;99.90;;;;;;4934500;29;20047;-73
2022/11/09 07:30:38;;;;;;;9.70;4.75;;;11.30;99.90;;;;;;4950591;28;20044;-75
2022/11/09 07:33:14;;;;;;;26.38;6.07;;;11.30;99.90;;;;;;4943468;29;20050;-75
2022/11/09 07:35:40;;;;;;;15.13;6.47;;;11.40;99.90;;;;;;4930077;29;20055;-75
2022/11/09 07:38:06;;;;;;;21.55;6.22;;;11.40;99.90;;;;;;4929938;29;20130;-75
2022/11/09 07:40:32;;;;;;;19.15;6.15;;;11.40;99.90;;;;;;4928539;29;20481;-75
2022/11/09 07:42:59;;;;;;;18.80;6.35;;;11.40;99.90;;;;;;4928906;29;20433;-75
2022/11/09 07:45:26;;;;;;;16.03;6.37;;;11.30;99.90;;;;;;4929347;29;20101;-75
2022/11/09 07:47:56;;;;;;;12.25;5.63;;;11.40;99.90;;;;;;4929976;29;20052;-75
2022/11/09 07:50:21;;;;;;;17.30;6.07;;;11.40;99.90;;;;;;4928389;29;20135;-74
2022/11/09 07:52:47;;;;;;;16.90;6.72;;;11.50;99.90;;;;;;4926442;29;20466;-75
2022/11/09 07:55:13;;;;;;;17.42;6.05;;;11.40;99.90;;;;;;4943156;28;20066;-75
2022/11/09 07:57:38;;;;;;;16.75;6.13;;;11.50;99.90;;;;;;4944720;28;20058;-75
2022/11/09 08:00:04;;;;;;;15.43;5.75;;;11.50;99.90;;;;;;4930197;29;20453;-75
2022/11/09 08:02:30;;;;;;;23.23;5.40;;;11.50;99.90;;;;;;4945740;28;20066;-75
2022/11/09 08:04:55;;;;;;;20.73;6.15;;;11.50;99.90;;;;;;4928041;29;20047;-75
2022/11/09 08:07:22;;;;;;;29.52;6.97;;;11.50;99.90;;;;;;4943245;28;20095;-75
2022/11/09 08:09:48;;;;;;;22.35;7.28;;;11.50;99.90;;;;;;4925642;29;20048;-75
2022/11/09 08:12:14;;;;;;;20.80;5.55;;;11.60;99.90;;;;;;4927953;29;20051;-75
2022/11/09 08:14:39;;;;;;;14.25;5.55;;;11.70;99.90;;;;;;4929433;29;20046;-75
2022/11/09 08:17:05;;;;;;;19.05;5.55;;;11.60;99.90;;;;;;4928532;29;20035;-75
2022/11/09 08:19:30;;;;;;;24.20;7.88;;;11.70;99.90;;;;;;4929204;29;20043;-74
2022/11/09 08:21:56;;;;;;;21.27;7.07;;;11.60;99.90;;;;;;4927218;29;20043;-75
2022/11/09 08:24:22;;;;;;;28.02;7.70;;;11.70;99.90;;;;;;4943814;29;20054;-75
2022/11/09 08:26:48;;;;;;;14.48;5.75;;;11.60;99.90;;;;;;4945037;29;20714;-75
2022/11/09 08:29:16;;;;;;;20.33;6.53;;;11.70;99.90;;;;;;4928648;29;20040;-75
2022/11/09 08:31:42;;;;;;;21.80;6.28;;;11.80;99.90;;;;;;4936248;29;20055;-76
2022/11/09 08:34:13;;;;;;;17.05;6.18;;;11.80;99.90;;;;;;4942764;29;20056;-75
2022/11/09 08:36:38;;;;;;;21.52;5.82;;;11.80;99.90;;;;;;4929248;29;20051;-75
2022/11/09 08:39:04;;;;;;;24.35;6.50;;;11.80;99.90;;;;;;4943372;28;20107;-75
2022/11/09 08:41:31;;;;;;;27.02;7.20;;;11.90;99.90;;;;;;4929062;29;20417;-74
2022/11/09 08:43:56;;;;;;;19.80;7.43;;;11.90;99.90;;;;;;4929193;29;20130;-74
2022/11/09 08:46:22;;;;;;;21.83;7.07;;;11.90;99.90;;;;;;4927229;29;20051;-74
2022/11/09 08:48:48;;;;;;;14.80;6.38;;;12.00;99.90;;;;;;4927428;29;20051;-75
2022/11/09 08:51:14;;;;;;;20.23;6.93;;;12.10;99.90;;;;;;4946691;28;20111;-75
2022/11/09 08:53:40;;;;;;;37.17;7.97;;;12.00;99.90;;;;;;4913615;29;20127;-73
2022/11/09 08:56:06;;;;;;;23.02;6.97;;;12.10;99.90;;;;;;4927585;29;20051;-75
2022/11/09 08:58:34;;;;;;;24.08;7.07;;;12.10;99.90;;;;;;4927844;29;20654;-75
2022/11/09 09:01:04;;;;;;;19.83;6.22;;;12.30;99.90;;;;;;4927776;29;20088;-74
2022/11/09 09:03:30;;;;;;;17.95;6.70;;;12.20;99.90;;;;;;4928252;29;20122;-74
2022/11/09 09:05:55;;;;;;;12.50;6.75;;;12.80;99.90;;;;;;4928503;29;20497;-74
2022/11/09 09:08:21;;;;;;;17.85;7.13;;;12.50;99.90;;;;;;4924272;29;20052;-75
2022/11/09 09:10:47;;;;;;;17.30;7.18;;;12.40;99.90;;;;;;4921795;29;20110;-75
2022/11/09 09:13:13;;;;;;;22.73;7.47;;;12.50;99.90;;;;;;4926776;29;20405;-75
2022/11/09 09:15:39;;;;;;;21.65;7.35;;;12.50;99.90;;;;;;4928965;29;20314;-74
2022/11/09 09:18:04;;;;;;;21.40;6.93;;;12.70;99.90;;;;;;4942230;28;20085;-74
2022/11/09 09:20:31;;;;;;;18.77;7.35;;;12.80;99.90;;;;;;4943021;28;20050;-74
2022/11/09 09:22:58;;;;;;;22.38;6.65;;;12.80;99.90;;;;;;4927572;29;20576;-74
2022/11/09 09:25:24;;;;;;;21.42;6.97;;;12.80;99.90;;;;;;4928231;29;20051;-74
2022/11/09 09:27:50;;;;;;;26.02;7.90;;;12.90;99.90;;;;;;4928436;29;20131;-74
2022/11/09 09:30:16;;;;;;;14.25;6.40;;;13.00;99.90;;;;;;4945812;28;20070;-74
2022/11/09 09:32:42;;;;;;;30.73;6.47;;;13.00;99.90;;;;;;4932220;29;20102;-75
2022/11/09 09:35:08;;;;;;;25.33;7.22;;;13.10;99.90;;;;;;4930224;29;20051;-74
2022/11/09 09:37:33;;;;;;;19.02;6.35;;;13.20;99.90;;;;;;4931982;29;20051;-74
2022/11/09 09:39:59;;;;;;;20.15;7.82;;;13.70;99.90;;;;;;4931927;29;20119;-74
2022/11/09 09:42:41;;;;;;;21.52;7.78;;;13.50;99.90;;;;;;4930731;29;20043;-74
2022/11/09 09:45:13;;;;;;;17.77;6.85;;;13.30;99.90;;;;;;4930094;29;20052;-74
2022/11/09 09:48:11;;;;;;;24.88;6.70;;;13.30;99.90;;;;;;4932820;29;20515;-74
2022/11/09 09:50:49;;;;;;;17.55;8.27;;;13.40;99.90;;;;;;4941892;29;20055;-74
2022/11/09 09:53:25;;;;;;;20.35;7.18;;;13.60;99.90;;;;;;4936170;29;20059;-75
2022/11/09 09:56:22;;;;;;;27.25;8.93;;;13.50;99.90;;;;;;4931430;29;20133;-74
2022/11/09 09:59:37;;;;;;;23.23;8.20;;;13.60;99.90;;;;;;4918999;29;20096;-74
2022/11/09 10:02:25;;;;;;;16.20;7.18;;;13.60;99.90;;;;;;4930617;29;20132;-74
2022/11/09 10:04:56;;;;;;;16.73;7.55;;;13.60;99.90;;;;;;4932002;29;20090;-74
2022/11/09 10:07:33;;;;;;;15.38;7.20;;;13.70;99.90;;;;;;4934095;29;20062;-74
2022/11/09 10:10:28;;;;;;;16.08;6.85;;;13.70;99.90;;;;;;4931385;29;20062;-74
2022/11/09 10:13:18;;;;;;;14.48;6.55;;;13.70;99.90;;;;;;4930142;29;20048;-74
2022/11/09 10:16:08;;;;;;;27.52;8.55;;;13.70;99.90;;;;;;4930377;29;20197;-75
2022/11/09 10:18:52;;;;;;;19.27;7.97;;;13.70;99.90;;;;;;4936343;29;20409;-75
2022/11/09 10:21:42;;;;;;;18.70;7.82;;;13.80;99.90;;;;;;4931332;29;20059;-75
2022/11/09 10:24:20;;;;;;;20.63;6.53;;;13.90;99.90;;;;;;4924582;29;20055;-74
2022/11/09 10:26:50;;;;;;;18.45;7.18;;;13.90;99.90;;;;;;4931966;29;20079;-74
2022/11/09 10:29:23;;;;;;;20.27;7.45;;;14.00;99.90;;;;;;4930317;29;20083;-74
2022/11/09 10:32:15;;;;;;;26.70;8.57;;;14.00;99.90;;;;;;4931323;29;20477;-75
2022/11/09 10:35:15;;;;;;;22.15;7.25;;;14.00;99.90;;;;;;4931011;29;20059;-74
2022/11/09 10:37:45;;;;;;;12.43;7.35;;;14.10;99.90;;;;;;4938611;29;20501;-75
2022/11/09 10:40:20;;;;;;;11.60;6.68;;;13.90;99.90;;;;;;4930509;29;20048;-74
2022/11/09 10:43:10;;;;;;;56.50;15.38;;;14.00;99.90;;;;;;4930381;29;20414;-76
2022/11/09 10:45:42;;;;;;;22.98;9.07;;;13.70;99.90;;;;;;4918583;29;20059;-75
2022/11/09 10:48:10;;;;;;;16.17;6.70;;;13.90;99.90;;;;;;4929909;29;20110;-75
2022/11/09 10:50:47;;;;;;;23.00;7.85;;;14.00;99.90;;;;;;4930839;29;20048;-76
2022/11/09 10:53:16;;;;;;;13.73;7.38;;;13.90;99.90;;;;;;4946236;29;20140;-76
2022/11/09 10:55:52;;;;;;;16.52;7.32;;;13.90;99.90;;;;;;4927027;29;20051;-75
2022/11/09 10:58:30;;;;;;;18.80;6.80;;;14.00;99.90;;;;;;4930121;29;20472;-75
2022/11/09 11:01:17;;;;;;;16.95;8.45;;;14.20;99.90;;;;;;4931263;29;20058;-75
2022/11/09 11:03:44;;;;;;;28.67;8.10;;;14.00;99.90;;;;;;4923823;29;20538;-76
2022/11/09 11:06:22;;;;;;;20.02;7.30;;;14.20;99.90;;;;;;4930860;29;20059;-76
2022/11/09 11:08:50;;;;;;;17.75;6.97;;;14.10;99.90;;;;;;4929333;29;20058;-76
2022/11/09 11:11:21;;;;;;;25.95;7.38;;;14.30;99.90;;;;;;4929311;29;20075;-76
2022/11/09 11:13:48;;;;;;;18.92;7.05;;;14.00;99.90;;;;;;4931339;29;20130;-76
2022/11/09 11:16:34;;;;;;;24.60;7.30;;;14.10;99.90;;;;;;4931042;29;20409;-76
2022/11/09 11:19:02;;;;;;;24.17;7.70;;;14.20;99.90;;;;;;4930879;29;20717;-76
2022/11/09 11:21:28;;;;;;;16.07;6.33;;;14.20;99.90;;;;;;4930087;29;20051;-77
2022/11/09 11:24:17;;;;;;;17.60;7.38;;;14.10;99.90;;;;;;4930421;29;20429;-76
2022/11/09 11:27:19;;;;;;;18.60;7.30;;;14.10;99.90;;;;;;4929966;29;20113;-76
2022/11/09 11:29:53;;;;;;;11.02;5.50;;;14.30;99.90;;;;;;4924453;29;20065;-76
2022/11/09 11:32:20;;;;;;;25.80;7.03;;;14.40;99.90;;;;;;4930058;29;20171;-76
2022/11/09 11:34:46;;;;;;;24.58;6.93;;;14.50;99.90;;;;;;4924287;29;20158;-77
2022/11/09 11:37:44;;;;;;;20.48;7.78;;;14.60;99.90;;;;;;4929092;29;20143;-77
2022/11/09 11:40:23;;;;;;;19.50;6.75;;;14.50;99.90;;;;;;4929558;29;20063;-77
2022/11/09 11:43:01;;;;;;;21.08;6.43;;;14.50;99.90;;;;;;4926736;29;20190;-76
2022/11/09 11:45:51;;;;;;;13.45;6.25;;;14.50;99.90;;;;;;4926873;29;20124;-76
2022/11/09 11:48:25;;;;;;;23.20;6.38;;;14.50;99.90;;;;;;4923531;29;20047;-77
2022/11/09 11:51:44;;;;;;;19.08;6.40;;;14.60;99.90;;;;;;4929891;29;20158;-76
2022/11/09 11:54:37;;;;;;;19.88;4.93;;;14.60;99.90;;;;;;4903375;29;20069;-76
2022/11/09 11:57:37;;;;;;;18.33;6.22;;;14.60;99.90;;;;;;4929729;29;20036;-76
2022/11/09 12:00:08;;;;;;;23.45;6.72;;;14.50;99.90;;;;;;4912511;29;20533;-76
2022/11/09 12:03:07;;;;;;;18.90;5.13;;;14.40;99.90;;;;;;4925947;29;20048;-77
2022/11/09 12:05:42;;;;;;;15.10;5.45;;;14.40;99.90;;;;;;4929743;29;20055;-77
2022/11/09 12:08:51;;;;;;;13.90;5.05;;;14.40;99.90;;;;;;4930138;29;20051;-76
2022/11/09 12:11:38;;;;;;;16.88;6.20;;;14.30;99.90;;;;;;4930215;29;20043;-77
2022/11/09 12:14:17;;;;;;;;;;;14.30;99.90;;;;;;4921779;29;20055;-77
2022/11/09 12:16:48;;;;;;;21.25;7.78;;;14.20;99.90;;;;;;4929313;29;19923;-77
2022/11/09 12:19:21;;;;;;;27.80;6.57;;;14.20;99.90;;;;;;4937704;29;20139;-77
2022/11/09 12:21:52;;;;;;;19.50;7.57;;;14.10;99.90;;;;;;4929488;29;20044;-77
2022/11/09 12:24:28;;;;;;;17.90;6.13;;;14.20;99.90;;;;;;4928306;29;20083;-77
2022/11/09 12:27:17;;;;;;;17.98;6.47;;;14.50;99.90;;;;;;4912364;29;20463;-77
2022/11/09 12:29:54;;;;;;;14.88;6.22;;;14.20;99.90;;;;;;4921549;29;20131;-76
2022/11/09 12:32:39;;;;;;;19.63;6.57;;;14.20;99.90;;;;;;4943792;28;20064;-77
2022/11/09 12:35:18;;;;;;;19.70;7.25;;;14.20;99.90;;;;;;4926414;29;20051;-77
2022/11/09 12:37:56;;;;;;;17.77;6.47;;;14.20;99.90;;;;;;4928899;29;20501;-76
2022/11/09 12:40:24;;;;;;;;;;;14.20;99.90;;;;;;4940693;29;20048;-76
2022/11/09 12:42:53;;;;;;;21.33;6.25;;;14.10;99.90;;;;;;4918613;29;19930;-77
2022/11/09 12:45:28;;;;;;;23.13;7.72;;;14.20;99.90;;;;;;4943596;29;20044;-76
2022/11/09 12:47:57;;;;;;;20.25;4.93;;;14.10;99.90;;;;;;4928180;29;20054;-76
2022/11/09 12:50:25;;;;;;;22.80;6.85;;;14.10;99.90;;;;;;4944295;28;20048;-77
2022/11/09 12:52:52;;;;;;;13.23;5.75;;;14.10;99.90;;;;;;4929612;29;20095;-77
2022/11/09 12:55:53;;;;;;;14.57;6.85;;;14.40;99.90;;;;;;4928459;29;20507;-77